EXS4WR LGZA-EGNT
Flight info
| Callsign | EXS4WR |
|---|---|
| Flight time | N/A |
| Altitude | 40000 |
| Route | OSDES UN1 LATAN DCT DAMIC DCT AIOSA DCT IPKIS DCT ROTAR DCT BORMI DCT RESIA DCT ELMUR DCT RIPUS DCT DITON DCT HOC DCT LUL DCT RLP DCT ROTSI DCT KOTUN DCT AMAXA DCT VESAN DCT RATUK DCT SOVAT L613 MAMUL UY250 RIMTO |
| Aircraft | B738/M-SDE2E3FGHIRWXY/LB1 |
Departure
| Time | 2026-05-04 12:38 |
|---|---|
| Airport | Zakynthos International Airport Dionysios Solomos (LGZA) |
Arrival
| Time | N/A |
|---|---|
| Airport | Newcastle International Airport (EGNT) |
| Time | Latitude | Longitude | Altitude | Speed | Heading |
|---|---|---|---|---|---|
| 2026-05-04 12:15 | 37.75448 | 20.88505 | 19 ft | 0 kts | 73° |
| 2026-05-04 12:29 | 37.75448 | 20.88504 | 19 ft | 2 kts | 73° |
| 2026-05-04 12:29 | 37.75441 | 20.88474 | 21 ft | 4 kts | 77° |
| 2026-05-04 12:29 | 37.75439 | 20.88441 | 20 ft | 4 kts | 103° |
| 2026-05-04 12:29 | 37.75450 | 20.88414 | 21 ft | 4 kts | 148° |
| 2026-05-04 12:30 | 37.75461 | 20.88406 | 22 ft | 1 kts | 162° |
| 2026-05-04 12:30 | 37.75462 | 20.88406 | 21 ft | 0 kts | 162° |
| 2026-05-04 12:34 | 37.75452 | 20.88410 | 20 ft | 4 kts | 162° |
| 2026-05-04 12:34 | 37.75395 | 20.88433 | 19 ft | 13 kts | 162° |
| 2026-05-04 12:34 | 37.75284 | 20.88475 | 22 ft | 19 kts | 164° |
| 2026-05-04 12:34 | 37.75173 | 20.88516 | 19 ft | 12 kts | 163° |
| 2026-05-04 12:35 | 37.75094 | 20.88514 | 19 ft | 11 kts | 213° |
| 2026-05-04 12:35 | 37.75022 | 20.88464 | 17 ft | 12 kts | 188° |
| 2026-05-04 12:35 | 37.74933 | 20.88487 | 17 ft | 14 kts | 162° |
| 2026-05-04 12:35 | 37.74828 | 20.88528 | 19 ft | 17 kts | 163° |
| 2026-05-04 12:36 | 37.74698 | 20.88576 | 20 ft | 22 kts | 163° |
| 2026-05-04 12:36 | 37.74544 | 20.88632 | 22 ft | 23 kts | 164° |
| 2026-05-04 12:36 | 37.74392 | 20.88687 | 19 ft | 22 kts | 163° |
| 2026-05-04 12:36 | 37.74245 | 20.88741 | 19 ft | 20 kts | 172° |
| 2026-05-04 12:37 | 37.74167 | 20.88748 | 20 ft | 6 kts | 120° |
| 2026-05-04 12:37 | 37.74188 | 20.88764 | 19 ft | 5 kts | 342° |
| 2026-05-04 12:37 | 37.74208 | 20.88756 | 21 ft | 0 kts | 345° |
| 2026-05-04 12:37 | 37.74228 | 20.88749 | 19 ft | 10 kts | 344° |
| 2026-05-04 12:38 | 37.74486 | 20.88651 | 20 ft | 78 kts | 343° |
| 2026-05-04 12:38 | 37.75253 | 20.88368 | 20 ft | 148 kts | 343° |
| 2026-05-04 12:38 | 37.76328 | 20.87934 | 503 ft | 164 kts | 343° |
| 2026-05-04 12:38 | 37.77372 | 20.87523 | 1445 ft | 154 kts | 342° |
| 2026-05-04 12:39 | 37.78396 | 20.87152 | 2223 ft | 156 kts | 341° |
| 2026-05-04 12:39 | 37.79484 | 20.86747 | 2864 ft | 170 kts | 341° |
| 2026-05-04 12:39 | 37.80655 | 20.86302 | 3532 ft | 182 kts | 342° |
| 2026-05-04 12:39 | 37.81885 | 20.85847 | 4358 ft | 184 kts | 342° |
| 2026-05-04 12:40 | 37.83120 | 20.85359 | 5179 ft | 187 kts | 342° |
| 2026-05-04 12:40 | 37.84405 | 20.84868 | 5805 ft | 198 kts | 342° |
| 2026-05-04 12:40 | 37.85752 | 20.84339 | 6523 ft | 206 kts | 343° |
| 2026-05-04 12:40 | 37.87176 | 20.84213 | 7417 ft | 206 kts | 5° |
| 2026-05-04 12:41 | 37.88586 | 20.84580 | 8296 ft | 211 kts | 17° |
| 2026-05-04 12:41 | 37.89912 | 20.85416 | 9187 ft | 214 kts | 24° |
| 2026-05-04 12:41 | 37.91248 | 20.86318 | 9885 ft | 223 kts | 23° |
| 2026-05-04 12:41 | 37.92620 | 20.87221 | 10135 ft | 220 kts | 22° |
| 2026-05-04 12:42 | 37.94002 | 20.88081 | 10388 ft | 227 kts | 21° |
| 2026-05-04 12:42 | 37.95547 | 20.88844 | 10579 ft | 252 kts | 5° |
| 2026-05-04 12:42 | 37.97323 | 20.88425 | 10810 ft | 278 kts | 332° |
| 2026-05-04 12:42 | 37.98895 | 20.86794 | 11123 ft | 305 kts | 317° |
| 2026-05-04 12:43 | 38.00363 | 20.84797 | 11858 ft | 313 kts | 314° |
| 2026-05-04 12:43 | 38.01438 | 20.83266 | 12547 ft | 315 kts | 314° |
| 2026-05-04 12:43 | 38.02892 | 20.81176 | 13561 ft | 316 kts | 314° |
| 2026-05-04 12:43 | 38.04356 | 20.79077 | 14448 ft | 320 kts | 314° |
| 2026-05-04 12:44 | 38.05418 | 20.77563 | 15065 ft | 323 kts | 314° |
| 2026-05-04 12:44 | 38.06935 | 20.75411 | 16026 ft | 324 kts | 314° |
| 2026-05-04 12:44 | 38.08426 | 20.73308 | 16980 ft | 326 kts | 315° |
| 2026-05-04 12:44 | 38.09948 | 20.71166 | 17944 ft | 328 kts | 315° |
| 2026-05-04 12:45 | 38.11477 | 20.69019 | 18773 ft | 328 kts | 315° |
| 2026-05-04 12:45 | 38.13020 | 20.66858 | 19423 ft | 334 kts | 315° |
| 2026-05-04 12:45 | 38.14595 | 20.64654 | 20070 ft | 339 kts | 315° |
| 2026-05-04 12:45 | 38.16187 | 20.62425 | 20888 ft | 342 kts | 315° |
| 2026-05-04 12:46 | 38.17794 | 20.60174 | 21681 ft | 345 kts | 315° |
| 2026-05-04 12:46 | 38.19418 | 20.57899 | 22333 ft | 351 kts | 315° |
| 2026-05-04 12:46 | 38.21070 | 20.55584 | 22927 ft | 356 kts | 315° |
| 2026-05-04 12:46 | 38.22736 | 20.53246 | 23652 ft | 357 kts | 315° |
| 2026-05-04 12:47 | 38.24404 | 20.50901 | 24218 ft | 358 kts | 315° |
| 2026-05-04 12:47 | 38.26081 | 20.48543 | 24792 ft | 361 kts | 315° |
| 2026-05-04 12:47 | 38.27769 | 20.46170 | 25396 ft | 362 kts | 315° |
| 2026-05-04 12:47 | 38.29468 | 20.43778 | 25949 ft | 366 kts | 315° |
| 2026-05-04 12:48 | 38.31177 | 20.41372 | 26510 ft | 368 kts | 315° |
| 2026-05-04 12:48 | 38.32898 | 20.38946 | 27092 ft | 370 kts | 315° |
| 2026-05-04 12:48 | 38.34628 | 20.36506 | 27651 ft | 372 kts | 314° |
| 2026-05-04 12:48 | 38.36365 | 20.34054 | 28185 ft | 374 kts | 314° |
| 2026-05-04 12:49 | 38.38111 | 20.31587 | 28692 ft | 376 kts | 314° |
| 2026-05-04 12:49 | 38.39872 | 20.29098 | 29200 ft | 379 kts | 314° |
| 2026-05-04 12:49 | 38.41640 | 20.26595 | 29691 ft | 381 kts | 314° |
| 2026-05-04 12:49 | 38.43417 | 20.24080 | 30168 ft | 383 kts | 314° |
| 2026-05-04 12:50 | 38.45205 | 20.21546 | 30563 ft | 385 kts | 314° |
| 2026-05-04 12:50 | 38.47001 | 20.18999 | 30941 ft | 387 kts | 314° |
| 2026-05-04 12:50 | 38.48807 | 20.16435 | 31371 ft | 388 kts | 314° |
| 2026-05-04 12:50 | 38.50603 | 20.13882 | 31907 ft | 385 kts | 314° |
| 2026-05-04 12:51 | 38.52391 | 20.11339 | 32382 ft | 385 kts | 314° |
| 2026-05-04 12:51 | 38.54181 | 20.08791 | 32757 ft | 386 kts | 313° |
| 2026-05-04 12:51 | 38.55973 | 20.06239 | 33248 ft | 385 kts | 313° |
| 2026-05-04 12:51 | 38.57749 | 20.03707 | 33829 ft | 381 kts | 313° |
| 2026-05-04 12:52 | 38.59514 | 20.01190 | 34339 ft | 379 kts | 313° |
| 2026-05-04 12:52 | 38.61274 | 19.98678 | 34663 ft | 381 kts | 313° |
| 2026-05-04 12:52 | 38.63047 | 19.96145 | 34923 ft | 383 kts | 313° |
| 2026-05-04 12:52 | 38.64827 | 19.93602 | 35249 ft | 384 kts | 313° |
| 2026-05-04 12:53 | 38.66608 | 19.91054 | 35612 ft | 384 kts | 313° |
| 2026-05-04 12:53 | 38.68391 | 19.88500 | 35926 ft | 385 kts | 313° |
| 2026-05-04 12:53 | 38.70180 | 19.85936 | 36226 ft | 387 kts | 313° |
| 2026-05-04 12:53 | 38.71973 | 19.83364 | 36555 ft | 387 kts | 313° |
| 2026-05-04 12:54 | 38.73767 | 19.80790 | 36879 ft | 388 kts | 313° |
| 2026-05-04 12:54 | 38.75566 | 19.78205 | 37149 ft | 389 kts | 313° |
| 2026-05-04 12:54 | 38.77373 | 19.75607 | 37412 ft | 391 kts | 313° |
| 2026-05-04 12:54 | 38.79187 | 19.72996 | 37697 ft | 393 kts | 313° |
| 2026-05-04 12:55 | 38.81002 | 19.70382 | 38030 ft | 393 kts | 313° |
| 2026-05-04 12:55 | 38.82793 | 19.67801 | 38347 ft | 393 kts | 313° |
| 2026-05-04 12:55 | 38.84612 | 19.65175 | 38628 ft | 394 kts | 313° |
| 2026-05-04 12:55 | 38.86460 | 19.62507 | 38897 ft | 395 kts | 313° |
| 2026-05-04 12:56 | 38.88258 | 19.59909 | 39137 ft | 395 kts | 313° |
| 2026-05-04 12:56 | 38.90081 | 19.57272 | 39380 ft | 395 kts | 313° |
| 2026-05-04 12:56 | 38.91907 | 19.54629 | 39597 ft | 396 kts | 313° |
| 2026-05-04 12:56 | 38.93734 | 19.51982 | 39826 ft | 396 kts | 313° |
| 2026-05-04 12:57 | 38.95559 | 19.49336 | 40057 ft | 396 kts | 313° |
| 2026-05-04 12:57 | 38.99239 | 19.43994 | 40128 ft | 402 kts | 312° |
| 2026-05-04 12:58 | 39.02932 | 19.38623 | 40120 ft | 398 kts | 312° |
| 2026-05-04 12:58 | 39.06560 | 19.33336 | 40125 ft | 393 kts | 312° |
| 2026-05-04 12:59 | 39.10170 | 19.28069 | 40129 ft | 392 kts | 312° |
| 2026-05-04 12:59 | 39.13775 | 19.22799 | 40127 ft | 392 kts | 312° |
| 2026-05-04 13:00 | 39.17378 | 19.17524 | 40127 ft | 392 kts | 312° |
| 2026-05-04 13:00 | 39.20982 | 19.12237 | 40129 ft | 393 kts | 312° |
| 2026-05-04 13:01 | 39.24587 | 19.06941 | 40132 ft | 393 kts | 311° |
| 2026-05-04 13:01 | 39.28276 | 19.01745 | 40120 ft | 393 kts | 319° |
| 2026-05-04 13:02 | 39.32788 | 18.97783 | 40122 ft | 395 kts | 333° |
| 2026-05-04 13:02 | 39.37762 | 18.94770 | 40132 ft | 395 kts | 333° |
| 2026-05-04 13:03 | 39.42754 | 18.91771 | 40127 ft | 396 kts | 333° |
| 2026-05-04 13:03 | 39.47743 | 18.88744 | 40129 ft | 396 kts | 333° |
| 2026-05-04 13:04 | 39.52728 | 18.85698 | 40128 ft | 396 kts | 333° |
| 2026-05-04 13:04 | 39.57713 | 18.82641 | 40126 ft | 397 kts | 333° |
| 2026-05-04 13:05 | 39.62702 | 18.79576 | 40122 ft | 397 kts | 333° |
| 2026-05-04 13:05 | 39.67696 | 18.76503 | 40114 ft | 397 kts | 333° |
| 2026-05-04 13:06 | 39.72651 | 18.73450 | 40125 ft | 397 kts | 333° |
| 2026-05-04 13:06 | 39.77636 | 18.70373 | 40122 ft | 397 kts | 333° |
| 2026-05-04 13:07 | 39.82622 | 18.67290 | 40128 ft | 397 kts | 333° |
| 2026-05-04 13:07 | 39.87604 | 18.64205 | 40119 ft | 397 kts | 333° |
| 2026-05-04 13:08 | 39.92587 | 18.61115 | 40120 ft | 396 kts | 333° |
| 2026-05-04 13:08 | 39.97566 | 18.58022 | 40120 ft | 396 kts | 333° |
| 2026-05-04 13:09 | 40.02544 | 18.54924 | 40117 ft | 396 kts | 333° |
| 2026-05-04 13:09 | 40.07519 | 18.51823 | 40116 ft | 396 kts | 333° |
| 2026-05-04 13:10 | 40.12492 | 18.48719 | 40123 ft | 396 kts | 333° |
| 2026-05-04 13:10 | 40.17469 | 18.45606 | 40122 ft | 397 kts | 333° |
| 2026-05-04 13:11 | 40.22445 | 18.42489 | 40119 ft | 397 kts | 333° |
| 2026-05-04 13:11 | 40.27426 | 18.39364 | 40123 ft | 397 kts | 332° |
| 2026-05-04 13:12 | 40.32402 | 18.36237 | 40121 ft | 397 kts | 332° |
| 2026-05-04 13:12 | 40.37378 | 18.33104 | 40124 ft | 397 kts | 332° |
| 2026-05-04 13:13 | 40.42329 | 18.29983 | 40124 ft | 397 kts | 332° |
| 2026-05-04 13:13 | 40.47306 | 18.26822 | 40121 ft | 397 kts | 332° |
| 2026-05-04 13:14 | 40.52215 | 18.23487 | 40128 ft | 397 kts | 330° |
| 2026-05-04 13:14 | 40.57106 | 18.20100 | 40128 ft | 398 kts | 330° |
| 2026-05-04 13:15 | 40.62009 | 18.16715 | 40124 ft | 398 kts | 330° |
| 2026-05-04 13:15 | 40.66918 | 18.13333 | 40129 ft | 398 kts | 331° |
| 2026-05-04 13:16 | 40.71834 | 18.09947 | 40129 ft | 399 kts | 331° |
| 2026-05-04 13:16 | 40.76747 | 18.06558 | 40140 ft | 399 kts | 331° |
| 2026-05-04 13:17 | 40.81667 | 18.03158 | 40121 ft | 399 kts | 331° |
| 2026-05-04 13:17 | 40.86591 | 17.99751 | 40120 ft | 400 kts | 331° |
| 2026-05-04 13:18 | 40.91515 | 17.96337 | 40118 ft | 400 kts | 331° |
| 2026-05-04 13:18 | 40.96441 | 17.92917 | 40117 ft | 400 kts | 331° |